Home > Products > Valid Products > MTR

000
SAUS42 KCHS 020057
MTRNBC
METAR KNBC 020056Z AUTO 17005KT 8SM CLR 24/23 A3005 RMK AO2 RAE06
SLP177 P0001 T02390228





000
SAUS42 KCHS 012358
MTRNBC
METAR KNBC 012356Z 06003KT 6SM -RA BR FEW055 BKN100 23/21 A3005 RMK
AO2 RAB11 SLP175 P0003 60003 T02280206 10300 20228 50005





000
SAUS42 KCHS 012358
MTRNBC
METAR KNBC 012356Z 06003KT 6SM -RA BR FEW055 BKN100 23/21 A3005 RMK
AO2 RAB11 SLP175 P0003 60003 T02280206 10300 20228 50005





000
SAUS42 KCHS 012319
MTRNBC
SPECI KNBC 012318Z 01003KT 5SM -RA SCT020 SCT060 BKN080 23/19 A3006
RMK AO2 RAB11 P0001 T02280194





000
SAUS42 KCHS 012257
MTRNBC
METAR KNBC 012256Z 00000KT 10SM VCTS BKN070CB BKN100 25/21 A3005 RMK
AO2 TSB12E14 SLP177 T02500211





000
SAUS42 KCHS 012217
MTRNBC
SPECI KNBC 012215Z 19003KT 10SM VCTS BKN070CB BKN100 26/22 A3005 RMK
AO2 TSB12E14 T02560217





000
SAUS42 KCHS 012158
MTRNBC
METAR KNBC 012156Z 16004KT 10SM SCT100 26/22 A3004 RMK AO2 TSB32E51
SLP174 T02560217





000
SAUS42 KCHS 012139
MTRNBC
SPECI KNBC 012138Z 15003KT 10SM TS SCT065 26/22 A3004 RMK AO2 TSB32
T02610222





000
SAUS42 KCHS 012139
MTRNBC
SPECI KNBC 012138Z 15003KT 10SM TS SCT065 26/22 A3004 RMK AO2 TSB32
T02610222





000
SAUS42 KCHS 012058
MTRNBC
METAR KNBC 012056Z AUTO VRB04KT 10SM CLR 27/21 A3003 RMK AO2 SLP170
60000 T02720206 55002





000
SAUS42 KCHS 011957
MTRNBC
METAR KNBC 011956Z AUTO 16007KT 10SM CLR 28/20 A3003 RMK AO2 RAE1858
SLP169 P0000 T02830200





000
SAUS42 KCHS 011858
MTRNBC
METAR KNBC 011856Z AUTO 18006G15KT 10SM -RA FEW048 SCT070 BKN100
27/20 A3004 RMK AO2 RAB48 TSE13 SLP174 P0000 T02720200





000
SAUS42 KCHS 011858
MTRNBC
METAR KNBC 011856Z AUTO 18006G15KT 10SM -RA FEW048 SCT070 BKN100
27/20 A3004 RMK AO2 RAB48 TSE13 SLP174 P0000 T02720200





000
SAUS42 KCHS 011836
MTRNBC
SPECI KNBC 011835Z AUTO 19006G17KT 10SM SCT043 BKN060 28/19 A3004
RMK AO2 TSE13 T02830189





000
SAUS42 KCHS 011820
MTRNBC
SPECI KNBC 011819Z AUTO 19008KT 10SM VCTS BKN043 BKN060 29/20 A3005
RMK AO2 TSE13 T02890200





000
SAUS42 KCHS 011757
MTRNBC
METAR KNBC 011756Z AUTO 17008G15KT 10SM SCT039 BKN065 29/19 A3004
RMK AO2 SLP172 60000 T02940189 10306 20244 58013





000
SAUS42 KCHS 011658
MTRNBC
METAR KNBC 011656Z AUTO 17007G15KT 10SM SCT033 SCT060 28/21 A3006
RMK AO2 RAB07E17 SLP180 P0000 T02830206





000
SAUS42 KCHS 011626
MTRNBC
SPECI KNBC 011624Z AUTO 17006KT 10SM SCT029 SCT049 29/21 A3007 RMK
AO2 RAB07E17 P0000 T02890211





000
SAUS42 KCHS 011612
MTRNBC
SPECI KNBC 011610Z AUTO 19006KT 10SM -RA BKN028 BKN035 OVC090 27/21
A3007 RMK AO2 RAB07 P0000 T02670211





000
SAUS42 KCHS 011557
MTRNBC
METAR KNBC 011556Z AUTO 18007KT 10SM FEW024 BKN032 OVC090 27/21
A3008 RMK AO2 SLP185 T02720211





000
SAUS42 KCHS 011534
MTRNBC
SPECI KNBC 011533Z AUTO 18008KT 10SM FEW021 BKN026 OVC049 28/21
A3008 RMK AO2 T02780211





000
SAUS42 KCHS 011534
MTRNBC
SPECI KNBC 011533Z AUTO 18008KT 10SM FEW021 BKN026 OVC049 28/21
A3008 RMK AO2 T02780211





000
SAUS42 KCHS 011457
MTRNBC
METAR KNBC 011456Z AUTO 19008G18KT 150V220 10SM FEW018 SCT060 BKN090
27/21 A3008 RMK AO2 SLP186 T02720211 51013





000
SAUS42 KCHS 011457
MTRNBC
METAR KNBC 011456Z AUTO 19008G18KT 150V220 10SM FEW018 SCT060 BKN090
27/21 A3008 RMK AO2 SLP186 T02720211 51013





000
SAUS42 KCHS 011430
MTRNBC
SPECI KNBC 011429Z AUTO 18007G17KT 130V220 10SM SCT020 BKN085 27/22
A3008 RMK AO2 T02670217





000
SAUS42 KCHS 011416
MTRNBC
SPECI KNBC 011414Z AUTO 17003KT 10SM FEW015 BKN020 BKN080 26/22
A3008 RMK AO2 T02610222





000
SAUS42 KCHS 011357
MTRNBC
METAR KNBC 011356Z AUTO 16004KT 10SM SCT016 BKN075 BKN090 26/22
A3007 RMK AO2 SLP183 T02610222





000
SAUS42 KCHS 011357
MTRNBC
METAR KNBC 011356Z AUTO 16004KT 10SM SCT016 BKN075 BKN090 26/22
A3007 RMK AO2 SLP183 T02610222





000
SAUS42 KCHS 011331
MTRNBC
SPECI KNBC 011329Z AUTO 17009G15KT 10SM SCT016 BKN070 26/22 A3007
RMK AO2 T02560217





000
SAUS42 KCHS 011257
MTRNBC
METAR KNBC 011256Z AUTO 16006KT 10SM BKN018 BKN028 OVC038 26/21
A3007 RMK AO2 SLP182 T02560211





000
SAUS42 KCHS 011257
MTRNBC
METAR KNBC 011256Z AUTO 16006KT 10SM BKN018 BKN028 OVC038 26/21
A3007 RMK AO2 SLP182 T02560211





000
SAUS42 KCHS 011209
MTRNBC
SPECI KNBC 011208Z AUTO 16006KT 10SM BKN019 25/21 A3005 RMK AO2
T02500211





000
SAUS42 KCHS 011157
MTRNBC
METAR KNBC 011156Z AUTO 15006KT 10SM SCT020 24/21 A3004 RMK AO2
SLP173 T02440211 10244 20239 51005





000
SAUS42 KCHS 011157
MTRNBC
METAR KNBC 011156Z AUTO 15006KT 10SM SCT020 24/21 A3004 RMK AO2
SLP173 T02440211 10244 20239 51005





000
SAUS42 KCHS 011152
MTRNBC
SPECI KNBC 011151Z AUTO 15005KT 10SM BKN020 24/21 A3004 RMK AO2





000
SAUS42 KCHS 011146
MTRNBC
SPECI KNBC 011144Z AUTO 15006KT 10SM SCT020 24/21 A3004 RMK AO2
T02440211





000
SAUS42 KCHS 011138
MTRNBC
SPECI KNBC 011137Z AUTO 16006KT 10SM BKN022 BKN070 24/21 A3004 RMK
AO2 T02440211





000
SAUS42 KCHS 011138
MTRNBC
SPECI KNBC 011137Z AUTO 16006KT 10SM BKN022 BKN070 24/21 A3004 RMK
AO2 T02440211





000
SAUS42 KCHS 011109
MTRNBC
SPECI KNBC 011107Z AUTO 15006KT 10SM SCT023 BKN070 24/21 A3004 RMK
AO2 T02390211





000
SAUS42 KCHS 011057
MTRNBC
METAR KNBC 011056Z AUTO 15006KT 10SM SCT021 BKN026 BKN065 24/21
A3004 RMK AO2 SLP172 T02440211





000
SAUS42 KCHS 011057
MTRNBC
METAR KNBC 011056Z AUTO 15006KT 10SM SCT021 BKN026 BKN065 24/21
A3004 RMK AO2 SLP172 T02440211





000
SAUS42 KCHS 010958
MTRNBC
METAR KNBC 010956Z AUTO 15006KT 10SM BKN024 BKN033 24/21 A3003 RMK
AO2 SLP168 T02440211





000
SAUS42 KCHS 010947
MTRNBC
SPECI KNBC 010945Z AUTO 15007KT 10SM BKN025 BKN029 BKN034 24/21
A3002 RMK AO2 T02440211





000
SAUS42 KCHS 010919
MTRNBC
SPECI KNBC 010917Z AUTO 15006KT 10SM SCT024 SCT033 24/21 A3002 RMK
AO2 T02440211





000
SAUS42 KCHS 010857
MTRNBC
METAR KNBC 010856Z AUTO 15008G15KT 10SM BKN024 BKN030 OVC045 24/21
A3002 RMK AO2 SLP165 T02440211 58010





000
SAUS42 KCHS 010834
MTRNBC
SPECI KNBC 010833Z AUTO 15009G17KT 10SM BKN024 BKN049 24/21 A3002
RMK AO2 T02440206





000
SAUS42 KCHS 010757
MTRNBC
METAR KNBC 010756Z AUTO 15007KT 10SM SCT029 SCT039 BKN060 24/21
A3003 RMK AO2 SLP169 T02440206





000
SAUS42 KCHS 010658
MTRNBC
METAR KNBC 010656Z AUTO 15005KT 10SM BKN028 BKN036 24/21 A3004 RMK
AO2 SLP172 T02440211





000
SAUS42 KCHS 010658
MTRNBC
METAR KNBC 010656Z AUTO 15005KT 10SM BKN028 BKN036 24/21 A3004 RMK
AO2 SLP172 T02440211





000
SAUS42 KCHS 010638
MTRNBC
SPECI KNBC 010636Z AUTO 14004KT 10SM BKN028 BKN038 BKN050 24/21
A3004 RMK AO2 T02440206





000
SAUS42 KCHS 010638
MTRNBC
SPECI KNBC 010636Z AUTO 14004KT 10SM BKN028 BKN038 BKN050 24/21
A3004 RMK AO2 T02440206





000
SAUS42 KCHS 010557
MTRNBC
METAR KNBC 010556Z AUTO 13005KT 10SM CLR 24/21 A3005 RMK AO2 SLP174
T02390206 10250 20228 58001





000
SAUS42 KCHS 010457
MTRNBC
METAR KNBC 010456Z AUTO 13005KT 10SM SCT032 BKN042 24/21 A3006 RMK
AO2 SLP180 T02390206 403000200





000
SAUS42 KCHS 010457
MTRNBC
METAR KNBC 010456Z AUTO 13005KT 10SM SCT032 BKN042 24/21 A3006 RMK
AO2 SLP180 T02390206 403000200





000
SAUS42 KCHS 010357
MTRNBC
METAR KNBC 010356Z AUTO 13005KT 10SM CLR 23/21 A3006 RMK AO2 SLP181
T02330206





000
SAUS42 KCHS 010357
MTRNBC
METAR KNBC 010356Z AUTO 13005KT 10SM CLR 23/21 A3006 RMK AO2 SLP181
T02330206





000
SAUS42 KCHS 010257
MTRNBC
METAR KNBC 010256Z AUTO 12006KT 10SM CLR 23/21 A3005 RMK AO2 SLP176
T02330206 53008





000
SAUS42 KCHS 010257
MTRNBC
METAR KNBC 010256Z AUTO 12006KT 10SM CLR 23/21 A3005 RMK AO2 SLP176
T02330206 53008





000
SAUS42 KCHS 010157
MTRNBC
METAR KNBC 010156Z AUTO 12006KT 10SM CLR 23/21 A3003 RMK AO2 SLP171
T02330206





000
SAUS42 KCHS 010157
MTRNBC
METAR KNBC 010156Z AUTO 12006KT 10SM CLR 23/21 A3003 RMK AO2 SLP171
T02330206





000
SAUS42 KCHS 010057
MTRNBC
METAR KNBC 010056Z AUTO 11008KT 10SM CLR 24/22 A3003 RMK AO2 SLP168
T02390217





000
SAUS42 KCHS 010057
MTRNBC
METAR KNBC 010056Z AUTO 11008KT 10SM CLR 24/22 A3003 RMK AO2 SLP168
T02390217





000
SAUS42 KCHS 302357
MTRNBC
METAR KNBC 302356Z AUTO 11005KT 10SM CLR 25/21 A3003 RMK AO2 SLP168
T02500211 10300 20250 53009





000
SAUS42 KCHS 302257
MTRNBC
METAR KNBC 302256Z AUTO 13007G14KT 10SM CLR 26/20 A3001 RMK AO2
SLP162 T02610200





000
SAUS42 KCHS 302257
MTRNBC
METAR KNBC 302256Z AUTO 13007G14KT 10SM CLR 26/20 A3001 RMK AO2
SLP162 T02610200





000
SAUS42 KCHS 302158
MTRNBC
METAR KNBC 302156Z AUTO 14005G14KT 10SM FEW028 27/21 A3000 RMK AO2
SLP159 T02720206





000
SAUS42 KCHS 302057
MTRNBC
METAR KNBC 302056Z AUTO 15005KT 10SM FEW035 FEW044 28/20 A3000 RMK
AO2 SLP158 T02830200 58011





000
SAUS42 KCHS 301957
MTRNBC
METAR KNBC 301956Z AUTO 14006KT 10SM CLR 29/21 A3001 RMK AO2 SLP163
T02940206





000
SAUS42 KCHS 301957
MTRNBC
METAR KNBC 301956Z AUTO 14006KT 10SM CLR 29/21 A3001 RMK AO2 SLP163
T02940206





000
SAUS42 KCHS 301857
MTRNBC
METAR KNBC 301856Z AUTO 16004KT 10SM CLR 29/21 A3002 RMK AO2 SLP166
T02890206





000
SAUS42 KCHS 301757
MTRNBC
METAR KNBC 301756Z AUTO 13007KT 10SM CLR 28/21 A3003 RMK AO2 SLP169
T02830211 10300 20222 58004





000
SAUS42 KCHS 301757
MTRNBC
METAR KNBC 301756Z AUTO 13007KT 10SM CLR 28/21 A3003 RMK AO2 SLP169
T02830211 10300 20222 58004





000
SAUS42 KCHS 301657
MTRNBC
METAR KNBC 301656Z AUTO 16004KT 10SM FEW029 29/21 A3003 RMK AO2
SLP171 T02890206





000
SAUS42 KCHS 301657
MTRNBC
METAR KNBC 301656Z AUTO 16004KT 10SM FEW029 29/21 A3003 RMK AO2
SLP171 T02890206





000
SAUS42 KCHS 301558
MTRNBC
METAR KNBC 301556Z AUTO VRB06KT 10SM CLR 28/21 A3004 RMK AO2 SLP173
T02830211





000
SAUS42 KCHS 301558
MTRNBC
METAR KNBC 301556Z AUTO VRB06KT 10SM CLR 28/21 A3004 RMK AO2 SLP173
T02830211





000
SAUS42 KCHS 301457
MTRNBC
METAR KNBC 301456Z AUTO VRB05KT 10SM FEW019 28/22 A3004 RMK AO2
SLP172 T02830217 53008





000
SAUS42 KCHS 301357
MTRNBC
METAR KNBC 301356Z AUTO 15006KT 10SM FEW012 27/22 A3002 RMK AO2
SLP166 T02670217





000
SAUS42 KCHS 301354
MTRNBC
SPECI KNBC 301353Z AUTO 15004KT 10SM FEW012 27/22 A3002 RMK AO2





000
SAUS42 KCHS 301354
MTRNBC
SPECI KNBC 301353Z AUTO 15004KT 10SM FEW012 27/22 A3002 RMK AO2





000
SAUS42 KCHS 301257
MTRNBC
METAR KNBC 301256Z AUTO 15003KT 8SM BKN010 24/22 A3002 RMK AO2
SLP165 T02440217





000
SAUS42 KCHS 301242
MTRNBC
SPECI KNBC 301240Z AUTO 16004KT 8SM BKN009 24/22 A3001 RMK AO2 CIG
005V012 T02390217





000
SAUS42 KCHS 301230
MTRNBC
SPECI KNBC 301229Z AUTO 15003KT 6SM BR SCT006 BKN011 23/22 A3001 RMK
AO2 T02330217





000
SAUS42 KCHS 301230
MTRNBC
SPECI KNBC 301229Z AUTO 15003KT 6SM BR SCT006 BKN011 23/22 A3001 RMK
AO2 T02330217





000
SAUS42 KCHS 301221
MTRNBC
SPECI KNBC 301220Z AUTO 00000KT 5SM BR OVC009 23/22 A3001 RMK AO2
CIG 003V012 T02280217





000
SAUS42 KCHS 301158
MTRNBC
METAR KNBC 301156Z AUTO 11004KT 3SM BR OVC004 23/22 A3002 RMK AO2
CIG 003V008 SLP165 T02280217 10228 20200 51015





000
SAUS42 KCHS 301139
MTRNBC
SPECI KNBC 301138Z AUTO 15003KT 4SM BR OVC004 23/21 A3001 RMK AO2
T02280211





000
SAUS42 KCHS 301111
MTRNBC
SPECI KNBC 301110Z AUTO 00000KT 3SM BR BKN003 OVC008 21/21 A3000 RMK
AO2 CIG 003V006 T02110206





000
SAUS42 KCHS 301057
MTRNBC
METAR KNBC 301056Z AUTO 00000KT 2SM BR BKN005 21/21 A3000 RMK AO2
CIG 004V008 SLP160 T02110206





000
SAUS42 KCHS 301044
MTRNBC
SPECI KNBC 301043Z AUTO 00000KT 2 1/2SM BR BKN004 22/21 A2999 RMK
AO2 T02170206





000
SAUS42 KCHS 301031
MTRNBC
SPECI KNBC 301030Z AUTO 00000KT 2 1/2SM BR BKN005 21/20 A2998 RMK
AO2 VIS 1 1/2V4 T02110200





000
SAUS42 KCHS 301031
MTRNBC
SPECI KNBC 301030Z AUTO 00000KT 2 1/2SM BR BKN005 21/20 A2998 RMK
AO2 VIS 1 1/2V4 T02110200





000
SAUS42 KCHS 301009
MTRNBC
SPECI KNBC 301008Z AUTO 00000KT 4SM BR BKN005 21/20 A2998 RMK AO2
T02110200





000
SAUS42 KCHS 300957
MTRNBC
METAR KNBC 300956Z AUTO 00000KT 4SM BR BKN004 22/20 A2998 RMK AO2
CIG 003V007 SLP151 T02170200





000
SAUS42 KCHS 300936
MTRNBC
SPECI KNBC 300934Z AUTO 00000KT 4SM BR OVC004 21/20 A2997 RMK AO2
T02110200





000
SAUS42 KCHS 300936
MTRNBC
SPECI KNBC 300934Z AUTO 00000KT 4SM BR OVC004 21/20 A2997 RMK AO2
T02110200





000
SAUS42 KCHS 300921
MTRNBC
SPECI KNBC 300920Z AUTO 00000KT 4SM BR OVC005 21/20 A2997 RMK AO2
T02110200





000
SAUS42 KCHS 300921
MTRNBC
SPECI KNBC 300920Z AUTO 00000KT 4SM BR OVC005 21/20 A2997 RMK AO2
T02110200





000
SAUS42 KCHS 300905
MTRNBC
SPECI KNBC 300904Z AUTO 00000KT 4SM BR BKN006 21/19 A2997 RMK AO2
T02060194





000
SAUS42 KCHS 300859
MTRNBC
SPECI KNBC 300858Z AUTO 00000KT 2SM BR BKN005 21/20 A2997 RMK AO2
T02060200





000
SAUS42 KCHS 300858
MTRNBC
METAR KNBC 300856Z AUTO 00000KT 1 3/4SM BR SCT005 21/20 A2997 RMK
AO2 SLP149 T02110200 55004





000
SAUS42 KCHS 300853
MTRNBC
SPECI KNBC 300852Z AUTO 00000KT 1SM BR VV005 21/20 A2997 RMK AO2





000
SAUS42 KCHS 300853
MTRNBC
SPECI KNBC 300852Z AUTO 00000KT 1SM BR VV005 21/20 A2997 RMK AO2





000
SAUS42 KCHS 300843
MTRNBC
SPECI KNBC 300842Z AUTO 00000KT 1/2SM FG VV005 21/20 A2997 RMK AO2
T02060200





000
SAUS42 KCHS 300841
MTRNBC
SPECI KNBC 300840Z AUTO 00000KT 3/4SM BR VV004 21/20 A2997 RMK AO2
T02110200





000
SAUS42 KCHS 300841
MTRNBC
SPECI KNBC 300840Z AUTO 00000KT 3/4SM BR VV004 21/20 A2997 RMK AO2
T02110200





000
SAUS42 KCHS 300839
MTRNBC
SPECI KNBC 300838Z AUTO 00000KT 1 1/2SM BR FEW006 21/20 A2997 RMK
AO2 T02110200





000
SAUS42 KCHS 300757
MTRNBC
METAR KNBC 300756Z AUTO 15003KT 4SM BR FEW004 22/21 A2996 RMK AO2
SLP145 T02220206





000
SAUS42 KCHS 300657
MTRNBC
METAR KNBC 300656Z AUTO 14003KT 5SM BR FEW005 23/22 A2997 RMK AO2
SLP148 T02280217





000
SAUS42 KCHS 300619
MTRNBC
SPECI KNBC 300618Z AUTO 15003KT 6SM BR SCT006 23/22 A2997 RMK AO2
T02280217





000
SAUS42 KCHS 300619
MTRNBC
SPECI KNBC 300618Z AUTO 15003KT 6SM BR SCT006 23/22 A2997 RMK AO2
T02280217





000
SAUS42 KCHS 300604
MTRNBC
SPECI KNBC 300603Z AUTO 14004KT 6SM BR BKN006 23/21 A2998 RMK AO2
T02280211





000
SAUS42 KCHS 300558
MTRNBC
METAR KNBC 300556Z AUTO 15004KT 6SM BR SCT006 23/21 A2998 RMK AO2
SLP152 T02280211 10250 20222 57001





000
SAUS42 KCHS 300546
MTRNBC
SPECI KNBC 300545Z AUTO 12004KT 5SM BR BKN006 23/21 A2998 RMK AO2
T02280211





000
SAUS42 KCHS 300458
MTRNBC
METAR KNBC 300456Z AUTO 15004KT 6SM BR FEW006 23/21 A2998 RMK AO2
SLP153 T02280211 403280206





000
SAUS42 KCHS 300458
MTRNBC
METAR KNBC 300456Z AUTO 15004KT 6SM BR FEW006 23/21 A2998 RMK AO2
SLP153 T02280211 403280206





000
SAUS42 KCHS 300444
MTRNBC
SPECI KNBC 300442Z AUTO 14003KT 6SM BR SCT006 23/21 A2998 RMK AO2
T02280211





000
SAUS42 KCHS 300357
MTRNBC
METAR KNBC 300356Z AUTO 14003KT 6SM BR OVC006 23/21 A2998 RMK AO2
SLP153 T02280211





000
SAUS42 KCHS 300342
MTRNBC
SPECI KNBC 300340Z AUTO 13004KT 6SM BR BKN007 23/21 A2998 RMK AO2
T02280211





000
SAUS42 KCHS 300330
MTRNBC
SPECI KNBC 300329Z AUTO 13005KT 6SM BR SCT007 23/21 A2998 RMK AO2
T02280211





000
SAUS42 KCHS 300330
MTRNBC
SPECI KNBC 300329Z AUTO 13005KT 6SM BR SCT007 23/21 A2998 RMK AO2
T02280211





000
SAUS42 KCHS 300257
MTRNBC
METAR KNBC 300256Z AUTO 14003KT 7SM CLR 23/21 A2998 RMK AO2 SLP154
T02280206 50014





000
SAUS42 KCHS 300157
MTRNBC
METAR KNBC 300156Z AUTO 12004KT 9SM CLR 22/20 A2999 RMK AO2 SLP155
LAST T02220200





000
SAUS42 KCHS 300057
MTRNBC
METAR KNBC 300056Z 13005KT 10SM CLR 23/20 A2998 RMK AO2 SLP151
T02280200





000
SAUS42 KCHS 300057
MTRNBC
METAR KNBC 300056Z 13005KT 10SM CLR 23/20 A2998 RMK AO2 SLP151
T02280200





000
SAUS42 KCHS 292357
MTRNBC
METAR KNBC 292356Z 11006KT 10SM SCT200 25/19 A2994 RMK AO2 SLP140
T02500194 10328 20250 53008





000
SAUS42 KCHS 292257
MTRNBC
METAR KNBC 292256Z 12009KT 10SM CLR 27/18 A2993 RMK AO2 SLP136
T02720183





000
SAUS42 KCHS 292157
MTRNBC
METAR KNBC 292156Z 13006KT 10SM FEW060 FEW250 30/18 A2992 RMK AO2
SLP132 T03000178





000
SAUS42 KCHS 292157
MTRNBC
METAR KNBC 292156Z 13006KT 10SM FEW060 FEW250 30/18 A2992 RMK AO2
SLP132 T03000178





000
SAUS42 KCHS 292057
MTRNBC
METAR KNBC 292056Z 15004KT 10SM FEW060 FEW250 31/18 A2992 RMK AO2
SLP132 T03060183 58008





000
SAUS42 KCHS 291957
MTRNBC
METAR KNBC 291956Z 14003KT 10SM FEW060 FEW250 32/16 A2993 RMK AO2
SLP135 T03220161





000
SAUS42 KCHS 291857
MTRNBC
METAR KNBC 291856Z 14003KT 10SM FEW060 33/17 A2994 RMK AO2 SLP138
T03280167





000
SAUS42 KCHS 291757
MTRNBC
METAR KNBC 291756Z 13005KT 10SM FEW060 32/15 A2994 RMK AO2 SLP140
T03170150 10322 20222 56011





000
SAUS42 KCHS 291658
MTRNBC
METAR KNBC 291656Z 00000KT 10SM FEW050 31/14 A2995 RMK AO2 SLP142
T03110139





000
SAUS42 KCHS 291557
MTRNBC
METAR KNBC 291556Z VRB03KT 10SM CLR 30/16 A2996 RMK AO2 SLP145
T03000161





000
SAUS42 KCHS 291457
MTRNBC
METAR KNBC 291456Z 00000KT 10SM CLR 29/19 A2998 RMK AO2 SLP151
T02890189 58004





000
SAUS42 KCHS 291357
MTRNBC
METAR KNBC 291356Z 32007KT 10SM CLR 27/19 A2998 RMK AO2 SLP153
T02670194





000
SAUS42 KCHS 291357
MTRNBC
METAR KNBC 291356Z 32007KT 10SM CLR 27/19 A2998 RMK AO2 SLP153
T02670194





000
SAUS42 KCHS 291257
MTRNBC
METAR KNBC 291256Z VRB06KT 10SM CLR 24/21 A2999 RMK AO2 SLP156
T02390206





000
SAUS42 KCHS 291157
MTRNBC
METAR KNBC 291156Z 27006KT 9SM FEW080 22/20 A2999 RMK AO2 SLP155
70001 T02220200 10222 20206 53017





000
SAUS42 KCHS 291157
MTRNBC
METAR KNBC 291156Z 27006KT 9SM FEW080 22/20 A2999 RMK AO2 SLP155
70001 T02220200 10222 20206 53017





000
SAUS42 KCHS 291057
MTRNBC
METAR KNBC 291056Z 26006KT 7SM FEW080 21/19 A2997 RMK AO2 SLP148
T02060189





000
SAUS42 KCHS 291057
MTRNBC
METAR KNBC 291056Z 26006KT 7SM FEW080 21/19 A2997 RMK AO2 SLP148
T02060189





000
SAUS42 KCHS 290958
MTRNBC
METAR KNBC 290956Z AUTO 25006KT 9SM CLR 21/19 A2995 RMK AO2 SLP142
T02060189





000
SAUS42 KCHS 290958
MTRNBC
METAR KNBC 290956Z AUTO 25006KT 9SM CLR 21/19 A2995 RMK AO2 SLP142
T02060189





000
SAUS42 KCHS 290857
MTRNBC
METAR KNBC 290856Z AUTO 25005KT 10SM CLR 21/19 A2994 RMK AO2 SLP138
T02060194 53001





000
SAUS42 KCHS 290857
MTRNBC
METAR KNBC 290856Z AUTO 25005KT 10SM CLR 21/19 A2994 RMK AO2 SLP138
T02060194 53001





000
SAUS42 KCHS 290757
MTRNBC
METAR KNBC 290756Z AUTO 24006KT 10SM CLR 21/19 A2993 RMK AO2 SLP136
T02110194





000
SAUS42 KCHS 290757
MTRNBC
METAR KNBC 290756Z AUTO 24006KT 10SM CLR 21/19 A2993 RMK AO2 SLP136
T02110194





000
SAUS42 KCHS 290657
MTRNBC
METAR KNBC 290656Z AUTO 00000KT 10SM CLR 22/19 A2993 RMK AO2 SLP134
T02170194





000
SAUS42 KCHS 290558
MTRNBC
METAR KNBC 290556Z AUTO 23007KT 10SM CLR 22/20 A2994 RMK AO2 SLP137
T02220200 10250 20222 55005





000
SAUS42 KCHS 290457
MTRNBC
METAR KNBC 290456Z AUTO 23007KT 10SM CLR 23/20 A2993 RMK AO2 SLP136
T02280200 403110211





000
SAUS42 KCHS 290358
MTRNBC
METAR KNBC 290356Z AUTO 24006KT 10SM CLR 22/20 A2994 RMK AO2 SLP138
T02220200





000
SAUS42 KCHS 290257
MTRNBC
METAR KNBC 290256Z AUTO 22003KT 10SM CLR 23/21 A2995 RMK AO2 SLP142
LAST T02280206 51009





000
SAUS42 KCHS 290157
MTRNBC
METAR KNBC 290156Z 23006KT 10SM CLR 23/21 A2995 RMK AO2 SLP141
T02280206





000
SAUS42 KCHS 290157
MTRNBC
METAR KNBC 290156Z 23006KT 10SM CLR 23/21 A2995 RMK AO2 SLP141
T02280206





    US Dept of Commerce
    National Oceanic and Atmospheric Administration
    National Weather Service
    1325 East West Highway
    Silver Spring, MD 20910
    Page Author: NWS Internet Services Team
Disclaimer
Information Quality
Credits
Glossary
Privacy Policy
Freedom of Information Act (FOIA)
About Us
Career Opportunities